首页
METAR-TAF:

METAR-TAF

机场 :

朱利叶斯·尼雷尔国际机场

达累斯萨拉姆, 坦桑尼亚

纬度: 06-52S, 经度: 039-12E, 海拔: 55米

当前天气观测

该预报发布于2小时和12分钟前的22:00 UTC
风速5节,风向南转南东
温度 25°C
湿度 89%
气压 1016 hPa
能见度10公里或以上
少量云层高于1300英尺

METAR: HTDA 212200Z 15005KT 9999 FEW013 25/23 Q1016 NOSIG

时间: 03:12 (00:12 UTC)

预报

该预报发布于7小时和12分钟前的17:00 UTC
预报有效从20日的 18点(UTC)到 22日的 24点(UTC)
风速5节,风向东转东南
能见度10公里或以上
少量云层高于1500英尺
几率 30% :
短暂存在
从 22日的 06点(UTC)到 22日的 11点(UTC)
风速15节,风向
多云层高于1800英尺
成为
从 22日的 13点(UTC)到 22日的 16点(UTC)
散云层高于2400英尺

TAF: HTDA 211700Z 2018/2224 12005KT 9999 FEW015 PROB30 TEMPO 2206/2211 17015KT RA BKN018 BECMG 2213/2216 SCT024

超过4000个机场的气象观测和天气预报(METAR&TAF报告)。

可查询的气象台以黄色和红色小点在地图上表示。

将鼠标移到小点上方,可查看气象台名称。

然后点击查看天气观测和预报。

如需切换地图:点击带黑十字的绿色按钮放大地图;点击带横线的绿色按钮缩小地图;或者点击绿色箭头查看邻近地区的地图。


METAR-TAF: